< < Back
Terminal Aerodrome Forecast


Current Version              Previous Versions:   1  2  3  4  5  6  7  8  9  

Terminal Aerodrome Forecast

329
FTUS42 KGSP 212114 AAA
TAFCLT
TAF AMD
KCLT 212114Z 2121/2218 06004KT P6SM SKC
     FM220000 10005KT P6SM FEW250
     FM221500 14004KT P6SM SCT250=



Latest METAR

780
SAUS70 KWBC 220500 RRF
MTRCLT
METAR KCLT 220452Z 09005KT 10SM FEW250 03/M13 A3051 RMK AO2 SLP333
T00331128 401441011


USA.gov is the U.S. government's official web portal to all federal, state and local government web resources and services.